Terminal Aerodrome Forecast
Issued by NWS

Home | Current Version | Previous Version | Graphics & Text | Print | Product List | Glossary On
Versions: 1 2 3 4 5 6 7 8 9 10 11 12 13 14 15 16 17 18 19 20 21 22 23 24 25 26 27
000
FTUS43 KLOT 061459 AAA
TAFORD
TAF AMD
KORD 061459Z 0615/0718 23008KT P6SM FEW025 SCT250
     FM061630 23010KT P6SM BKN025
     FM070000 21007KT P6SM BKN120
     FM070700 22010KT P6SM OVC080
     FM071500 23013KT P6SM OVC050=

USA.gov is the U.S. government's official web portal to all federal, state and local government web resources and services.